sensor_id;sensor_type;location;lat;lon;timestamp;temperature;humidity
7194;DHT22;3638;48.820;9.244;2022-09-27T00:00:35;10.70;99.90
7194;DHT22;3638;48.820;9.244;2022-09-27T00:03:02;10.70;99.90
7194;DHT22;3638;48.820;9.244;2022-09-27T00:05:30;10.70;99.90
7194;DHT22;3638;48.820;9.244;2022-09-27T00:07:57;10.70;99.90
7194;DHT22;3638;48.820;9.244;2022-09-27T00:10:24;10.80;99.90
7194;DHT22;3638;48.820;9.244;2022-09-27T00:12:51;10.80;99.90
7194;DHT22;3638;48.820;9.244;2022-09-27T00:15:20;10.80;99.90
7194;DHT22;3638;48.820;9.244;2022-09-27T00:17:47;10.80;99.90
7194;DHT22;3638;48.820;9.244;2022-09-27T00:20:17;10.80;99.90
7194;DHT22;3638;48.820;9.244;2022-09-27T00:22:45;10.80;99.90
7194;DHT22;3638;48.820;9.244;2022-09-27T00:25:12;10.80;99.90
7194;DHT22;3638;48.820;9.244;2022-09-27T00:27:39;10.90;99.90
7194;DHT22;3638;48.820;9.244;2022-09-27T00:30:07;10.90;99.90
7194;DHT22;3638;48.820;9.244;2022-09-27T00:32:36;10.80;99.90
7194;DHT22;3638;48.820;9.244;2022-09-27T00:35:03;10.80;99.90
7194;DHT22;3638;48.820;9.244;2022-09-27T00:37:30;10.80;99.90
7194;DHT22;3638;48.820;9.244;2022-09-27T00:39:57;10.90;99.90
7194;DHT22;3638;48.820;9.244;2022-09-27T00:42:24;10.80;99.90
7194;DHT22;3638;48.820;9.244;2022-09-27T00:45:00;10.80;99.90
7194;DHT22;3638;48.820;9.244;2022-09-27T00:47:35;10.80;99.90
7194;DHT22;3638;48.820;9.244;2022-09-27T00:50:13;10.80;99.90
7194;DHT22;3638;48.820;9.244;2022-09-27T00:52:51;10.90;99.90
7194;DHT22;3638;48.820;9.244;2022-09-27T00:55:26;10.90;99.90
7194;DHT22;3638;48.820;9.244;2022-09-27T00:57:54;10.90;99.90
7194;DHT22;3638;48.820;9.244;2022-09-27T01:00:22;10.80;99.90
7194;DHT22;3638;48.820;9.244;2022-09-27T01:02:52;10.80;99.90
7194;DHT22;3638;48.820;9.244;2022-09-27T01:05:22;10.90;99.90
7194;DHT22;3638;48.820;9.244;2022-09-27T01:07:50;11.00;99.90
7194;DHT22;3638;48.820;9.244;2022-09-27T01:10:21;11.00;99.90
7194;DHT22;3638;48.820;9.244;2022-09-27T01:12:57;11.10;99.90
7194;DHT22;3638;48.820;9.244;2022-09-27T01:15:35;11.00;99.90
7194;DHT22;3638;48.820;9.244;2022-09-27T01:18:16;11.00;99.90
7194;DHT22;3638;48.820;9.244;2022-09-27T01:21:19;11.00;99.90
7194;DHT22;3638;48.820;9.244;2022-09-27T01:24:21;11.20;99.90
7194;DHT22;3638;48.820;9.244;2022-09-27T01:27:36;11.10;99.90
7194;DHT22;3638;48.820;9.244;2022-09-27T01:30:20;11.10;99.90
7194;DHT22;3638;48.820;9.244;2022-09-27T01:32:52;11.00;99.90
7194;DHT22;3638;48.820;9.244;2022-09-27T01:35:29;10.90;99.90
7194;DHT22;3638;48.820;9.244;2022-09-27T01:38:08;10.90;99.90
7194;DHT22;3638;48.820;9.244;2022-09-27T01:40:42;10.80;99.90
7194;DHT22;3638;48.820;9.244;2022-09-27T01:43:17;10.80;99.90
7194;DHT22;3638;48.820;9.244;2022-09-27T01:45:51;10.80;99.90
7194;DHT22;3638;48.820;9.244;2022-09-27T01:48:22;10.80;99.90
7194;DHT22;3638;48.820;9.244;2022-09-27T01:50:53;10.70;99.90
7194;DHT22;3638;48.820;9.244;2022-09-27T01:53:26;10.60;99.90
7194;DHT22;3638;48.820;9.244;2022-09-27T01:56:01;10.60;99.90
7194;DHT22;3638;48.820;9.244;2022-09-27T01:58:32;10.70;99.90
7194;DHT22;3638;48.820;9.244;2022-09-27T02:01:04;10.70;99.90
7194;DHT22;3638;48.820;9.244;2022-09-27T02:03:34;10.70;99.90
7194;DHT22;3638;48.820;9.244;2022-09-27T02:06:08;10.70;99.90
7194;DHT22;3638;48.820;9.244;2022-09-27T02:08:39;10.80;99.90
7194;DHT22;3638;48.820;9.244;2022-09-27T02:11:11;10.80;99.90
7194;DHT22;3638;48.820;9.244;2022-09-27T02:13:43;10.80;99.90
7194;DHT22;3638;48.820;9.244;2022-09-27T02:16:21;10.90;99.90
7194;DHT22;3638;48.820;9.244;2022-09-27T02:18:56;11.10;99.90
7194;DHT22;3638;48.820;9.244;2022-09-27T02:21:33;10.90;99.90
7194;DHT22;3638;48.820;9.244;2022-09-27T02:24:05;10.90;99.90
7194;DHT22;3638;48.820;9.244;2022-09-27T02:26:38;10.90;99.90
7194;DHT22;3638;48.820;9.244;2022-09-27T02:29:09;10.80;99.90
7194;DHT22;3638;48.820;9.244;2022-09-27T02:31:38;10.70;99.90
7194;DHT22;3638;48.820;9.244;2022-09-27T02:34:08;10.80;99.90
7194;DHT22;3638;48.820;9.244;2022-09-27T02:36:37;10.80;99.90
7194;DHT22;3638;48.820;9.244;2022-09-27T02:39:04;10.80;99.90
7194;DHT22;3638;48.820;9.244;2022-09-27T02:41:31;10.70;99.90
7194;DHT22;3638;48.820;9.244;2022-09-27T02:44:00;10.60;99.90
7194;DHT22;3638;48.820;9.244;2022-09-27T02:46:50;10.60;99.90
7194;DHT22;3638;48.820;9.244;2022-09-27T02:49:45;10.70;99.90
7194;DHT22;3638;48.820;9.244;2022-09-27T02:52:28;10.60;99.90
7194;DHT22;3638;48.820;9.244;2022-09-27T02:55:07;10.70;99.90
7194;DHT22;3638;48.820;9.244;2022-09-27T02:57:45;10.60;99.90
7194;DHT22;3638;48.820;9.244;2022-09-27T03:00:21;10.60;99.90
7194;DHT22;3638;48.820;9.244;2022-09-27T03:03:00;10.50;99.90
7194;DHT22;3638;48.820;9.244;2022-09-27T03:05:34;10.50;99.90
7194;DHT22;3638;48.820;9.244;2022-09-27T03:08:04;10.50;99.90
7194;DHT22;3638;48.820;9.244;2022-09-27T03:10:32;10.50;99.90
7194;DHT22;3638;48.820;9.244;2022-09-27T03:12:59;10.40;99.90
7194;DHT22;3638;48.820;9.244;2022-09-27T03:15:25;10.30;99.90
7194;DHT22;3638;48.820;9.244;2022-09-27T03:17:54;10.20;99.90
7194;DHT22;3638;48.820;9.244;2022-09-27T03:20:21;10.30;99.90
7194;DHT22;3638;48.820;9.244;2022-09-27T03:22:47;10.30;99.90
7194;DHT22;3638;48.820;9.244;2022-09-27T03:25:14;10.30;99.90
7194;DHT22;3638;48.820;9.244;2022-09-27T03:27:42;10.20;99.90
7194;DHT22;3638;48.820;9.244;2022-09-27T03:30:11;10.30;99.90
7194;DHT22;3638;48.820;9.244;2022-09-27T03:32:41;10.20;99.90
7194;DHT22;3638;48.820;9.244;2022-09-27T03:35:10;10.20;99.90
7194;DHT22;3638;48.820;9.244;2022-09-27T03:37:37;10.20;99.90
7194;DHT22;3638;48.820;9.244;2022-09-27T03:40:06;10.20;99.90
7194;DHT22;3638;48.820;9.244;2022-09-27T03:42:34;10.10;99.90
7194;DHT22;3638;48.820;9.244;2022-09-27T03:45:01;10.10;99.90
7194;DHT22;3638;48.820;9.244;2022-09-27T03:47:28;10.10;99.90
7194;DHT22;3638;48.820;9.244;2022-09-27T03:49:55;10.10;99.90
7194;DHT22;3638;48.820;9.244;2022-09-27T03:52:23;10.10;99.90
7194;DHT22;3638;48.820;9.244;2022-09-27T03:54:50;10.00;99.90
7194;DHT22;3638;48.820;9.244;2022-09-27T03:57:17;10.00;99.90
7194;DHT22;3638;48.820;9.244;2022-09-27T03:59:44;10.10;99.90
7194;DHT22;3638;48.820;9.244;2022-09-27T04:02:10;10.10;99.90
7194;DHT22;3638;48.820;9.244;2022-09-27T04:04:37;10.10;99.90
7194;DHT22;3638;48.820;9.244;2022-09-27T04:07:04;10.10;99.90
7194;DHT22;3638;48.820;9.244;2022-09-27T04:09:32;10.10;99.90
7194;DHT22;3638;48.820;9.244;2022-09-27T04:11:59;10.10;99.90
7194;DHT22;3638;48.820;9.244;2022-09-27T04:14:27;10.10;99.90
7194;DHT22;3638;48.820;9.244;2022-09-27T04:16:53;10.20;99.90
7194;DHT22;3638;48.820;9.244;2022-09-27T04:19:20;10.30;99.90
7194;DHT22;3638;48.820;9.244;2022-09-27T04:21:47;10.30;99.90
7194;DHT22;3638;48.820;9.244;2022-09-27T04:24:14;10.30;99.90
7194;DHT22;3638;48.820;9.244;2022-09-27T04:26:42;10.30;99.90
7194;DHT22;3638;48.820;9.244;2022-09-27T04:29:09;10.30;99.90
7194;DHT22;3638;48.820;9.244;2022-09-27T04:31:36;10.40;99.90
7194;DHT22;3638;48.820;9.244;2022-09-27T04:34:03;10.30;99.90
7194;DHT22;3638;48.820;9.244;2022-09-27T04:36:30;10.30;99.90
7194;DHT22;3638;48.820;9.244;2022-09-27T04:38:58;10.20;99.90
7194;DHT22;3638;48.820;9.244;2022-09-27T04:41:26;10.20;99.90
7194;DHT22;3638;48.820;9.244;2022-09-27T04:43:55;10.10;99.90
7194;DHT22;3638;48.820;9.244;2022-09-27T04:46:26;10.30;99.90
7194;DHT22;3638;48.820;9.244;2022-09-27T04:48:55;10.30;99.90
7194;DHT22;3638;48.820;9.244;2022-09-27T04:51:22;10.20;99.90
7194;DHT22;3638;48.820;9.244;2022-09-27T04:53:49;10.20;99.90
7194;DHT22;3638;48.820;9.244;2022-09-27T04:56:16;12.30;99.90
7194;DHT22;3638;48.820;9.244;2022-09-27T04:58:43;10.30;99.90
7194;DHT22;3638;48.820;9.244;2022-09-27T05:01:11;10.40;99.90
7194;DHT22;3638;48.820;9.244;2022-09-27T05:03:38;10.30;99.90
7194;DHT22;3638;48.820;9.244;2022-09-27T05:06:05;10.40;99.90
7194;DHT22;3638;48.820;9.244;2022-09-27T05:08:32;10.40;99.90
7194;DHT22;3638;48.820;9.244;2022-09-27T05:10:59;10.40;99.90
7194;DHT22;3638;48.820;9.244;2022-09-27T05:13:26;10.30;99.90
7194;DHT22;3638;48.820;9.244;2022-09-27T05:15:53;10.30;99.90
7194;DHT22;3638;48.820;9.244;2022-09-27T05:18:21;10.30;99.90
7194;DHT22;3638;48.820;9.244;2022-09-27T05:20:48;10.30;99.90
7194;DHT22;3638;48.820;9.244;2022-09-27T05:23:15;10.40;99.90
7194;DHT22;3638;48.820;9.244;2022-09-27T05:25:42;10.30;99.90
7194;DHT22;3638;48.820;9.244;2022-09-27T05:28:09;10.30;99.90
7194;DHT22;3638;48.820;9.244;2022-09-27T05:30:35;10.20;99.90
7194;DHT22;3638;48.820;9.244;2022-09-27T05:33:03;10.30;99.90
7194;DHT22;3638;48.820;9.244;2022-09-27T05:35:31;10.30;99.90
7194;DHT22;3638;48.820;9.244;2022-09-27T05:37:59;10.50;99.90
7194;DHT22;3638;48.820;9.244;2022-09-27T05:40:26;10.50;99.90
7194;DHT22;3638;48.820;9.244;2022-09-27T05:42:55;10.30;99.90
7194;DHT22;3638;48.820;9.244;2022-09-27T05:45:23;10.30;99.90
7194;DHT22;3638;48.820;9.244;2022-09-27T05:47:52;10.20;99.90
7194;DHT22;3638;48.820;9.244;2022-09-27T05:50:19;10.30;99.90
7194;DHT22;3638;48.820;9.244;2022-09-27T05:52:48;10.40;99.90
7194;DHT22;3638;48.820;9.244;2022-09-27T05:55:15;10.50;99.90
7194;DHT22;3638;48.820;9.244;2022-09-27T05:57:42;10.50;99.90
7194;DHT22;3638;48.820;9.244;2022-09-27T06:00:19;10.50;99.90
7194;DHT22;3638;48.820;9.244;2022-09-27T06:02:52;10.60;99.90
7194;DHT22;3638;48.820;9.244;2022-09-27T06:05:20;10.50;99.90
7194;DHT22;3638;48.820;9.244;2022-09-27T06:07:49;10.60;99.90
7194;DHT22;3638;48.820;9.244;2022-09-27T06:10:16;10.60;99.90
7194;DHT22;3638;48.820;9.244;2022-09-27T06:12:44;10.60;99.90
7194;DHT22;3638;48.820;9.244;2022-09-27T06:15:11;10.60;99.90
7194;DHT22;3638;48.820;9.244;2022-09-27T06:17:39;8.30;99.90
7194;DHT22;3638;48.820;9.244;2022-09-27T06:20:06;10.60;99.90
7194;DHT22;3638;48.820;9.244;2022-09-27T06:22:34;10.60;99.90
7194;DHT22;3638;48.820;9.244;2022-09-27T06:25:03;10.70;99.90
7194;DHT22;3638;48.820;9.244;2022-09-27T06:27:30;10.70;99.90
7194;DHT22;3638;48.820;9.244;2022-09-27T06:29:57;10.70;99.90
7194;DHT22;3638;48.820;9.244;2022-09-27T06:32:24;10.70;99.90
7194;DHT22;3638;48.820;9.244;2022-09-27T06:34:51;10.80;99.90
7194;DHT22;3638;48.820;9.244;2022-09-27T06:37:18;10.80;99.90
7194;DHT22;3638;48.820;9.244;2022-09-27T06:39:45;10.90;99.90
7194;DHT22;3638;48.820;9.244;2022-09-27T06:42:14;10.90;99.90
7194;DHT22;3638;48.820;9.244;2022-09-27T06:44:43;11.00;99.90
7194;DHT22;3638;48.820;9.244;2022-09-27T06:47:11;11.30;99.90
7194;DHT22;3638;48.820;9.244;2022-09-27T06:49:38;11.60;99.90
7194;DHT22;3638;48.820;9.244;2022-09-27T06:52:05;11.60;99.90
7194;DHT22;3638;48.820;9.244;2022-09-27T06:54:32;11.70;99.90
7194;DHT22;3638;48.820;9.244;2022-09-27T06:56:59;11.50;99.90
7194;DHT22;3638;48.820;9.244;2022-09-27T06:59:27;11.40;99.90
7194;DHT22;3638;48.820;9.244;2022-09-27T07:02:11;11.20;99.90
7194;DHT22;3638;48.820;9.244;2022-09-27T07:04:38;11.00;99.90
7194;DHT22;3638;48.820;9.244;2022-09-27T07:07:05;10.70;99.90
7194;DHT22;3638;48.820;9.244;2022-09-27T07:09:32;10.70;99.90
7194;DHT22;3638;48.820;9.244;2022-09-27T07:11:59;10.70;99.90
7194;DHT22;3638;48.820;9.244;2022-09-27T07:14:27;10.70;99.90
7194;DHT22;3638;48.820;9.244;2022-09-27T07:16:54;10.90;99.90
7194;DHT22;3638;48.820;9.244;2022-09-27T07:19:21;11.00;99.90
7194;DHT22;3638;48.820;9.244;2022-09-27T07:21:49;11.20;99.90
7194;DHT22;3638;48.820;9.244;2022-09-27T07:24:17;11.10;99.90
7194;DHT22;3638;48.820;9.244;2022-09-27T07:26:43;11.20;99.90
7194;DHT22;3638;48.820;9.244;2022-09-27T07:29:12;11.10;99.90
7194;DHT22;3638;48.820;9.244;2022-09-27T07:31:40;11.10;99.90
7194;DHT22;3638;48.820;9.244;2022-09-27T07:34:07;11.10;99.90
7194;DHT22;3638;48.820;9.244;2022-09-27T07:36:35;11.20;99.90
7194;DHT22;3638;48.820;9.244;2022-09-27T07:39:02;11.20;99.90
7194;DHT22;3638;48.820;9.244;2022-09-27T07:41:29;11.10;99.90
7194;DHT22;3638;48.820;9.244;2022-09-27T07:43:56;11.10;99.90
7194;DHT22;3638;48.820;9.244;2022-09-27T07:46:24;10.90;99.90
7194;DHT22;3638;48.820;9.244;2022-09-27T07:48:52;10.90;99.90
7194;DHT22;3638;48.820;9.244;2022-09-27T07:51:19;10.90;99.90
7194;DHT22;3638;48.820;9.244;2022-09-27T07:53:53;10.90;99.90
7194;DHT22;3638;48.820;9.244;2022-09-27T07:56:21;11.00;99.90
7194;DHT22;3638;48.820;9.244;2022-09-27T07:58:47;11.30;99.90
7194;DHT22;3638;48.820;9.244;2022-09-27T08:01:14;11.50;99.90
7194;DHT22;3638;48.820;9.244;2022-09-27T08:03:41;11.60;99.90
7194;DHT22;3638;48.820;9.244;2022-09-27T08:06:10;11.90;99.90
7194;DHT22;3638;48.820;9.244;2022-09-27T08:08:36;12.20;99.90
7194;DHT22;3638;48.820;9.244;2022-09-27T08:11:10;12.30;99.90
7194;DHT22;3638;48.820;9.244;2022-09-27T08:13:38;12.40;99.90
7194;DHT22;3638;48.820;9.244;2022-09-27T08:16:05;12.50;99.90
7194;DHT22;3638;48.820;9.244;2022-09-27T08:18:32;12.50;99.90
7194;DHT22;3638;48.820;9.244;2022-09-27T08:20:59;12.50;99.90
7194;DHT22;3638;48.820;9.244;2022-09-27T08:23:28;12.50;99.90
7194;DHT22;3638;48.820;9.244;2022-09-27T08:25:56;12.30;99.90
7194;DHT22;3638;48.820;9.244;2022-09-27T08:28:24;12.40;99.90
7194;DHT22;3638;48.820;9.244;2022-09-27T08:30:52;12.50;99.90
7194;DHT22;3638;48.820;9.244;2022-09-27T08:33:19;12.70;99.90
7194;DHT22;3638;48.820;9.244;2022-09-27T08:35:45;12.80;99.90
7194;DHT22;3638;48.820;9.244;2022-09-27T08:38:12;13.10;99.90
7194;DHT22;3638;48.820;9.244;2022-09-27T08:40:50;13.10;99.90
7194;DHT22;3638;48.820;9.244;2022-09-27T08:43:25;13.10;99.90
7194;DHT22;3638;48.820;9.244;2022-09-27T08:46:12;13.20;99.90
7194;DHT22;3638;48.820;9.244;2022-09-27T08:48:48;13.40;99.90
7194;DHT22;3638;48.820;9.244;2022-09-27T08:51:20;13.50;99.90
7194;DHT22;3638;48.820;9.244;2022-09-27T08:53:56;13.60;99.90
7194;DHT22;3638;48.820;9.244;2022-09-27T08:56:27;13.40;99.90
7194;DHT22;3638;48.820;9.244;2022-09-27T08:58:59;13.20;99.90
7194;DHT22;3638;48.820;9.244;2022-09-27T09:01:28;13.30;99.90
7194;DHT22;3638;48.820;9.244;2022-09-27T09:03:56;13.20;99.90
7194;DHT22;3638;48.820;9.244;2022-09-27T09:06:27;15.50;99.90
7194;DHT22;3638;48.820;9.244;2022-09-27T09:09:02;13.20;99.90
7194;DHT22;3638;48.820;9.244;2022-09-27T09:11:45;13.10;99.90
7194;DHT22;3638;48.820;9.244;2022-09-27T09:14:54;13.00;99.90
7194;DHT22;3638;48.820;9.244;2022-09-27T09:17:40;13.20;99.90
7194;DHT22;3638;48.820;9.244;2022-09-27T09:20:24;13.10;99.90
7194;DHT22;3638;48.820;9.244;2022-09-27T09:23:22;12.90;99.90
7194;DHT22;3638;48.820;9.244;2022-09-27T09:26:01;12.60;99.90
7194;DHT22;3638;48.820;9.244;2022-09-27T09:28:43;12.40;99.90
7194;DHT22;3638;48.820;9.244;2022-09-27T09:31:22;12.10;99.90
7194;DHT22;3638;48.820;9.244;2022-09-27T09:33:58;12.20;99.90
7194;DHT22;3638;48.820;9.244;2022-09-27T09:36:32;12.40;99.90
7194;DHT22;3638;48.820;9.244;2022-09-27T09:39:05;12.60;99.90
7194;DHT22;3638;48.820;9.244;2022-09-27T09:41:40;12.90;99.90
7194;DHT22;3638;48.820;9.244;2022-09-27T09:44:16;12.90;99.90
7194;DHT22;3638;48.820;9.244;2022-09-27T09:46:48;13.30;99.90
7194;DHT22;3638;48.820;9.244;2022-09-27T09:49:21;13.30;99.90
7194;DHT22;3638;48.820;9.244;2022-09-27T09:51:53;13.70;99.90
7194;DHT22;3638;48.820;9.244;2022-09-27T09:54:26;13.70;99.90
7194;DHT22;3638;48.820;9.244;2022-09-27T09:57:00;14.10;99.90
7194;DHT22;3638;48.820;9.244;2022-09-27T09:59:37;14.30;99.90
7194;DHT22;3638;48.820;9.244;2022-09-27T10:02:19;14.30;99.90
7194;DHT22;3638;48.820;9.244;2022-09-27T10:04:49;14.40;99.90
7194;DHT22;3638;48.820;9.244;2022-09-27T10:07:19;14.60;99.90
7194;DHT22;3638;48.820;9.244;2022-09-27T10:09:47;14.40;99.90
7194;DHT22;3638;48.820;9.244;2022-09-27T10:12:14;14.40;99.90
7194;DHT22;3638;48.820;9.244;2022-09-27T10:14:45;14.40;99.90
7194;DHT22;3638;48.820;9.244;2022-09-27T10:17:16;14.40;99.90
7194;DHT22;3638;48.820;9.244;2022-09-27T10:19:45;14.70;99.90
7194;DHT22;3638;48.820;9.244;2022-09-27T10:22:16;14.70;99.90
7194;DHT22;3638;48.820;9.244;2022-09-27T10:24:56;14.70;99.90
7194;DHT22;3638;48.820;9.244;2022-09-27T10:27:24;14.90;99.90
7194;DHT22;3638;48.820;9.244;2022-09-27T10:29:59;14.80;99.90
7194;DHT22;3638;48.820;9.244;2022-09-27T10:32:29;14.80;99.90
7194;DHT22;3638;48.820;9.244;2022-09-27T10:35:31;14.50;99.90
7194;DHT22;3638;48.820;9.244;2022-09-27T10:38:19;14.10;99.90
7194;DHT22;3638;48.820;9.244;2022-09-27T10:40:48;13.90;99.90
7194;DHT22;3638;48.820;9.244;2022-09-27T10:43:28;13.90;99.90
7194;DHT22;3638;48.820;9.244;2022-09-27T10:46:04;13.70;99.90
7194;DHT22;3638;48.820;9.244;2022-09-27T10:48:37;13.50;99.90
7194;DHT22;3638;48.820;9.244;2022-09-27T10:51:17;13.10;99.90
7194;DHT22;3638;48.820;9.244;2022-09-27T10:53:48;13.00;99.90
7194;DHT22;3638;48.820;9.244;2022-09-27T10:56:21;12.80;99.90
7194;DHT22;3638;48.820;9.244;2022-09-27T10:58:49;12.80;99.90
7194;DHT22;3638;48.820;9.244;2022-09-27T11:01:18;13.00;99.90
7194;DHT22;3638;48.820;9.244;2022-09-27T11:03:48;13.30;99.90
7194;DHT22;3638;48.820;9.244;2022-09-27T11:06:27;13.40;99.90
7194;DHT22;3638;48.820;9.244;2022-09-27T11:09:10;13.50;99.90
7194;DHT22;3638;48.820;9.244;2022-09-27T11:11:44;13.50;99.90
7194;DHT22;3638;48.820;9.244;2022-09-27T11:14:19;13.50;99.90
7194;DHT22;3638;48.820;9.244;2022-09-27T11:17:02;13.50;99.90
7194;DHT22;3638;48.820;9.244;2022-09-27T11:19:48;13.50;99.90
7194;DHT22;3638;48.820;9.244;2022-09-27T11:22:32;13.40;99.90
7194;DHT22;3638;48.820;9.244;2022-09-27T11:25:28;13.50;99.90
7194;DHT22;3638;48.820;9.244;2022-09-27T11:28:05;13.60;99.90
7194;DHT22;3638;48.820;9.244;2022-09-27T11:30:45;13.50;99.90
7194;DHT22;3638;48.820;9.244;2022-09-27T11:33:35;13.40;99.90
7194;DHT22;3638;48.820;9.244;2022-09-27T11:36:22;13.60;99.90
7194;DHT22;3638;48.820;9.244;2022-09-27T11:39:02;13.60;99.90
7194;DHT22;3638;48.820;9.244;2022-09-27T11:41:46;13.50;99.90
7194;DHT22;3638;48.820;9.244;2022-09-27T11:47:26;13.50;99.90
7194;DHT22;3638;48.820;9.244;2022-09-27T11:53:22;13.50;99.90
7194;DHT22;3638;48.820;9.244;2022-09-27T11:56:02;13.40;99.90
7194;DHT22;3638;48.820;9.244;2022-09-27T11:58:39;13.20;99.90
7194;DHT22;3638;48.820;9.244;2022-09-27T12:01:21;12.90;99.90
7194;DHT22;3638;48.820;9.244;2022-09-27T12:04:20;12.80;99.90
7194;DHT22;3638;48.820;9.244;2022-09-27T12:07:01;12.70;99.90
7194;DHT22;3638;48.820;9.244;2022-09-27T12:09:33;11.90;99.90
7194;DHT22;3638;48.820;9.244;2022-09-27T12:12:05;11.30;99.90
7194;DHT22;3638;48.820;9.244;2022-09-27T12:14:39;10.80;99.90
7194;DHT22;3638;48.820;9.244;2022-09-27T12:17:13;10.70;99.90
7194;DHT22;3638;48.820;9.244;2022-09-27T12:19:46;10.70;99.90
7194;DHT22;3638;48.820;9.244;2022-09-27T12:22:20;10.70;99.90
7194;DHT22;3638;48.820;9.244;2022-09-27T12:24:51;10.50;99.90
7194;DHT22;3638;48.820;9.244;2022-09-27T12:27:22;10.50;99.90
7194;DHT22;3638;48.820;9.244;2022-09-27T12:29:58;10.40;99.90
7194;DHT22;3638;48.820;9.244;2022-09-27T12:32:29;10.40;99.90
7194;DHT22;3638;48.820;9.244;2022-09-27T12:35:04;10.20;99.90
7194;DHT22;3638;48.820;9.244;2022-09-27T12:37:41;10.20;99.90
7194;DHT22;3638;48.820;9.244;2022-09-27T12:40:15;10.30;99.90
7194;DHT22;3638;48.820;9.244;2022-09-27T12:42:50;10.20;99.90
7194;DHT22;3638;48.820;9.244;2022-09-27T12:45:26;10.40;99.90
7194;DHT22;3638;48.820;9.244;2022-09-27T12:48:04;10.70;99.90
7194;DHT22;3638;48.820;9.244;2022-09-27T12:50:38;10.50;99.90
7194;DHT22;3638;48.820;9.244;2022-09-27T12:53:13;10.40;99.90
7194;DHT22;3638;48.820;9.244;2022-09-27T12:55:54;10.50;99.90
7194;DHT22;3638;48.820;9.244;2022-09-27T12:58:58;10.90;99.90
7194;DHT22;3638;48.820;9.244;2022-09-27T13:02:15;11.10;99.90
7194;DHT22;3638;48.820;9.244;2022-09-27T13:05:01;11.10;99.90
7194;DHT22;3638;48.820;9.244;2022-09-27T13:08:08;11.30;99.90
7194;DHT22;3638;48.820;9.244;2022-09-27T13:10:54;11.40;99.90
7194;DHT22;3638;48.820;9.244;2022-09-27T13:13:26;11.50;99.90
7194;DHT22;3638;48.820;9.244;2022-09-27T13:15:56;11.70;99.90
7194;DHT22;3638;48.820;9.244;2022-09-27T13:18:30;11.70;99.90
7194;DHT22;3638;48.820;9.244;2022-09-27T13:21:00;11.80;99.90
7194;DHT22;3638;48.820;9.244;2022-09-27T13:23:59;11.60;99.90
7194;DHT22;3638;48.820;9.244;2022-09-27T13:26:44;11.50;99.90
7194;DHT22;3638;48.820;9.244;2022-09-27T13:29:35;11.20;99.90
7194;DHT22;3638;48.820;9.244;2022-09-27T13:32:14;10.90;99.90
7194;DHT22;3638;48.820;9.244;2022-09-27T13:34:44;10.80;99.90
7194;DHT22;3638;48.820;9.244;2022-09-27T13:37:31;10.90;99.90
7194;DHT22;3638;48.820;9.244;2022-09-27T13:40:22;10.60;99.90
7194;DHT22;3638;48.820;9.244;2022-09-27T13:45:54;10.20;99.90
7194;DHT22;3638;48.820;9.244;2022-09-27T13:48:27;10.00;99.90
7194;DHT22;3638;48.820;9.244;2022-09-27T13:51:00;10.00;99.90
7194;DHT22;3638;48.820;9.244;2022-09-27T13:53:31;10.10;99.90
7194;DHT22;3638;48.820;9.244;2022-09-27T13:56:01;10.10;99.90
7194;DHT22;3638;48.820;9.244;2022-09-27T13:58:34;10.20;99.90
7194;DHT22;3638;48.820;9.244;2022-09-27T14:01:22;10.20;99.90
7194;DHT22;3638;48.820;9.244;2022-09-27T14:03:55;10.20;99.90
7194;DHT22;3638;48.820;9.244;2022-09-27T14:06:29;10.30;99.90
7194;DHT22;3638;48.820;9.244;2022-09-27T14:09:02;10.40;99.90
7194;DHT22;3638;48.820;9.244;2022-09-27T14:11:35;10.50;99.90
7194;DHT22;3638;48.820;9.244;2022-09-27T14:14:04;10.40;99.90
7194;DHT22;3638;48.820;9.244;2022-09-27T14:16:34;10.40;99.90
7194;DHT22;3638;48.820;9.244;2022-09-27T14:19:02;10.40;99.90
7194;DHT22;3638;48.820;9.244;2022-09-27T14:21:31;10.20;99.90
7194;DHT22;3638;48.820;9.244;2022-09-27T14:24:25;10.30;99.90
7194;DHT22;3638;48.820;9.244;2022-09-27T14:27:10;10.30;99.90
7194;DHT22;3638;48.820;9.244;2022-09-27T14:29:41;10.20;99.90
7194;DHT22;3638;48.820;9.244;2022-09-27T14:32:12;10.20;99.90
7194;DHT22;3638;48.820;9.244;2022-09-27T14:34:41;10.40;99.90
7194;DHT22;3638;48.820;9.244;2022-09-27T14:37:22;10.30;99.90
7194;DHT22;3638;48.820;9.244;2022-09-27T14:39:57;10.20;99.90
7194;DHT22;3638;48.820;9.244;2022-09-27T14:42:27;10.20;99.90
7194;DHT22;3638;48.820;9.244;2022-09-27T14:45:00;10.20;99.90
7194;DHT22;3638;48.820;9.244;2022-09-27T14:47:32;10.30;99.90
7194;DHT22;3638;48.820;9.244;2022-09-27T14:50:00;10.40;99.90
7194;DHT22;3638;48.820;9.244;2022-09-27T14:52:30;10.50;99.90
7194;DHT22;3638;48.820;9.244;2022-09-27T14:55:01;10.80;99.90
7194;DHT22;3638;48.820;9.244;2022-09-27T14:57:34;11.00;99.90
7194;DHT22;3638;48.820;9.244;2022-09-27T15:00:14;11.10;99.90
7194;DHT22;3638;48.820;9.244;2022-09-27T15:02:43;11.20;99.90
7194;DHT22;3638;48.820;9.244;2022-09-27T15:05:14;11.40;99.90
7194;DHT22;3638;48.820;9.244;2022-09-27T15:07:44;11.60;99.90
7194;DHT22;3638;48.820;9.244;2022-09-27T15:10:14;11.60;99.90
7194;DHT22;3638;48.820;9.244;2022-09-27T15:12:47;11.40;99.90
7194;DHT22;3638;48.820;9.244;2022-09-27T15:15:18;11.30;99.90
7194;DHT22;3638;48.820;9.244;2022-09-27T15:17:48;11.10;99.90
7194;DHT22;3638;48.820;9.244;2022-09-27T15:20:21;11.00;99.90
7194;DHT22;3638;48.820;9.244;2022-09-27T15:22:50;11.00;99.90
7194;DHT22;3638;48.820;9.244;2022-09-27T15:25:21;11.10;99.90
7194;DHT22;3638;48.820;9.244;2022-09-27T15:28:03;11.10;99.90
7194;DHT22;3638;48.820;9.244;2022-09-27T15:30:36;11.20;99.90
7194;DHT22;3638;48.820;9.244;2022-09-27T15:33:05;11.20;99.90
7194;DHT22;3638;48.820;9.244;2022-09-27T15:35:35;11.20;99.90
7194;DHT22;3638;48.820;9.244;2022-09-27T15:38:20;11.30;99.90
7194;DHT22;3638;48.820;9.244;2022-09-27T15:41:02;11.50;99.90
7194;DHT22;3638;48.820;9.244;2022-09-27T15:43:37;11.60;99.90
7194;DHT22;3638;48.820;9.244;2022-09-27T15:46:24;11.60;99.90
7194;DHT22;3638;48.820;9.244;2022-09-27T15:52:02;11.50;99.90
7194;DHT22;3638;48.820;9.244;2022-09-27T15:54:32;11.40;99.90
7194;DHT22;3638;48.820;9.244;2022-09-27T15:57:02;11.50;99.90
7194;DHT22;3638;48.820;9.244;2022-09-27T15:59:34;11.40;99.90
7194;DHT22;3638;48.820;9.244;2022-09-27T16:02:03;11.50;99.90
7194;DHT22;3638;48.820;9.244;2022-09-27T16:04:36;11.50;99.90
7194;DHT22;3638;48.820;9.244;2022-09-27T16:07:04;11.50;99.90
7194;DHT22;3638;48.820;9.244;2022-09-27T16:09:33;11.70;99.90
7194;DHT22;3638;48.820;9.244;2022-09-27T16:12:00;11.70;99.90
7194;DHT22;3638;48.820;9.244;2022-09-27T16:14:27;11.80;99.90
7194;DHT22;3638;48.820;9.244;2022-09-27T16:16:56;11.80;99.90
7194;DHT22;3638;48.820;9.244;2022-09-27T16:19:24;11.50;99.90
7194;DHT22;3638;48.820;9.244;2022-09-27T16:21:51;11.30;99.90
7194;DHT22;3638;48.820;9.244;2022-09-27T16:24:18;11.10;99.90
7194;DHT22;3638;48.820;9.244;2022-09-27T16:26:45;11.00;99.90
7194;DHT22;3638;48.820;9.244;2022-09-27T16:29:13;10.90;99.90
7194;DHT22;3638;48.820;9.244;2022-09-27T16:31:41;10.90;99.90
7194;DHT22;3638;48.820;9.244;2022-09-27T16:34:10;10.70;99.90
7194;DHT22;3638;48.820;9.244;2022-09-27T16:36:37;10.70;99.90
7194;DHT22;3638;48.820;9.244;2022-09-27T16:39:06;10.70;99.90
7194;DHT22;3638;48.820;9.244;2022-09-27T16:41:34;10.70;99.90
7194;DHT22;3638;48.820;9.244;2022-09-27T16:44:05;10.60;99.90
7194;DHT22;3638;48.820;9.244;2022-09-27T16:46:32;10.60;99.90
7194;DHT22;3638;48.820;9.244;2022-09-27T16:49:00;10.60;99.90